Time;durP1;ratioP1;P1;durP2;ratioP2;P2;SDS_P1;SDS_P2;PMS_P1;PMS_P2;Temp;Humidity;BMP_temperature;BMP_pressure;BME280_temperature;BME280_humidity;BME280_pressure;Samples;Min_cycle;Max_cycle;Signal;HPM_P1;HPM_P2
2021/05/30 00:00:49;;;;;;;;;;;8.70;82.80;;;;;;4808961;29;20069;-84
2021/05/30 00:03:17;;;;;;;4.97;1.92;;;8.60;83.00;;;;;;4823244;29;19920;-85
2021/05/30 00:05:47;;;;;;;6.95;2.35;;;8.60;83.10;;;;;;4814616;29;20318;-87
2021/05/30 00:08:15;;;;;;;4.83;2.90;;;8.60;83.10;;;;;;4809400;29;20058;-85
2021/05/30 00:10:44;;;;;;;5.30;2.70;;;8.50;83.50;;;;;;4834811;29;20085;-82
2021/05/30 00:13:12;;;;;;;7.97;2.88;;;8.40;83.80;;;;;;4809798;29;20050;-84
2021/05/30 00:15:39;;;;;;;5.38;2.50;;;8.40;83.70;;;;;;4819981;29;20054;-84
2021/05/30 00:18:07;;;;;;;6.18;2.42;;;8.40;83.70;;;;;;4826063;29;20341;-84
2021/05/30 00:20:34;;;;;;;4.90;2.42;;;8.50;83.50;;;;;;4826654;29;20065;-86
2021/05/30 00:23:04;;;;;;;9.00;3.08;;;8.50;83.90;;;;;;4803768;29;20057;-85
2021/05/30 00:25:32;;;;;;;7.10;2.97;;;8.40;84.30;;;;;;4829309;29;20182;-86
2021/05/30 00:27:59;;;;;;;7.53;3.25;;;8.30;84.50;;;;;;4831843;29;20054;-85
2021/05/30 00:30:26;;;;;;;8.85;3.70;;;8.30;85.00;;;;;;4807313;29;20221;-86
2021/05/30 00:32:53;;;;;;;7.30;3.08;;;8.30;85.00;;;;;;4821253;29;20046;-86
2021/05/30 00:35:21;;;;;;;7.40;2.70;;;8.40;84.70;;;;;;4814961;29;20054;-85
2021/05/30 00:37:49;;;;;;;6.07;2.47;;;8.30;84.70;;;;;;4800515;29;20481;-86
2021/05/30 00:40:17;;;;;;;11.50;4.07;;;8.30;85.00;;;;;;4821740;29;20050;-86
2021/05/30 00:42:44;;;;;;;9.85;3.97;;;8.30;85.00;;;;;;4815523;29;20034;-86
2021/05/30 00:45:12;;;;;;;9.65;3.90;;;8.30;84.90;;;;;;4830984;29;20066;-86
2021/05/30 00:47:39;;;;;;;9.02;3.30;;;8.30;85.00;;;;;;4825725;29;20083;-83
2021/05/30 00:50:08;;;;;;;7.05;3.22;;;8.30;84.70;;;;;;4830143;29;20058;-86
2021/05/30 00:52:36;;;;;;;8.82;3.13;;;8.40;84.90;;;;;;4830330;29;20045;-85
2021/05/30 00:55:04;;;;;;;10.07;4.07;;;8.40;84.80;;;;;;4805963;29;20315;-85
2021/05/30 00:57:31;;;;;;;12.30;4.38;;;8.30;84.80;;;;;;4830287;29;20110;-82
2021/05/30 00:59:58;;;;;;;10.20;4.15;;;8.20;84.90;;;;;;4830201;29;20396;-82
2021/05/30 01:02:25;;;;;;;10.00;4.43;;;8.20;85.30;;;;;;4810811;29;20514;-84
2021/05/30 01:04:52;;;;;;;16.05;4.97;;;8.10;85.50;;;;;;4813547;29;20184;-86
2021/05/30 01:07:19;;;;;;;9.18;4.32;;;8.10;85.90;;;;;;4826844;29;20063;-85
2021/05/30 01:09:48;;;;;;;8.70;4.35;;;8.20;85.60;;;;;;4827027;29;20054;-87
2021/05/30 01:12:16;;;;;;;11.07;4.95;;;8.20;85.40;;;;;;4825566;29;20122;-84
2021/05/30 01:14:43;;;;;;;10.45;4.95;;;8.30;85.20;;;;;;4830457;29;20046;-84
2021/05/30 01:17:11;;;;;;;8.73;3.92;;;8.30;85.20;;;;;;4829795;29;20066;-85
2021/05/30 01:19:39;;;;;;;10.45;3.80;;;8.30;85.10;;;;;;4802870;29;20111;-84
2021/05/30 01:22:08;;;;;;;7.88;3.90;;;8.20;85.10;;;;;;4833650;29;20074;-86
2021/05/30 01:24:38;;;;;;;9.32;2.97;;;8.20;85.20;;;;;;4833390;29;20076;-85
2021/05/30 01:27:05;;;;;;;7.90;3.22;;;8.20;85.40;;;;;;4834100;29;20054;-86
2021/05/30 01:29:33;;;;;;;5.70;2.75;;;8.10;85.40;;;;;;4829929;29;20050;-86
2021/05/30 01:32:03;;;;;;;9.40;3.55;;;8.10;85.50;;;;;;4831901;29;20054;-86
2021/05/30 01:34:32;;;;;;;7.65;3.05;;;8.10;85.60;;;;;;4832783;29;20365;-84
2021/05/30 01:36:59;;;;;;;7.05;3.03;;;8.00;85.80;;;;;;4817239;29;20172;-84
2021/05/30 01:39:26;;;;;;;5.95;2.90;;;8.00;85.90;;;;;;4816407;29;20066;-85
2021/05/30 01:41:54;;;;;;;5.05;2.30;;;7.90;86.10;;;;;;4830178;29;20187;-85
2021/05/30 01:44:23;;;;;;;7.15;3.35;;;7.90;86.10;;;;;;4833493;29;20409;-84
2021/05/30 01:46:50;;;;;;;7.55;3.03;;;7.90;86.20;;;;;;4813237;29;20061;-86
2021/05/30 01:49:17;;;;;;;10.07;2.55;;;7.80;86.40;;;;;;4830264;29;20062;-84
2021/05/30 01:51:45;;;;;;;6.20;2.78;;;7.80;86.40;;;;;;4829357;29;20115;-85
2021/05/30 01:54:17;;;;;;;10.00;3.10;;;7.70;86.60;;;;;;4831503;29;20062;-84
2021/05/30 01:56:57;;;;;;;8.27;3.75;;;7.70;86.70;;;;;;4831482;29;20077;-86
2021/05/30 01:59:26;;;;;;;8.77;2.80;;;7.70;86.80;;;;;;4825579;29;20251;-86
2021/05/30 02:01:57;;;;;;;7.07;3.22;;;7.60;86.80;;;;;;4808241;29;20061;-85
2021/05/30 02:04:29;;;;;;;6.38;2.85;;;7.60;86.80;;;;;;4820590;29;20046;-87
2021/05/30 02:06:56;;;;;;;7.68;2.97;;;7.60;86.70;;;;;;4832174;29;20066;-86
2021/05/30 02:09:23;;;;;;;6.13;3.28;;;7.60;86.60;;;;;;4830506;29;20133;-86
2021/05/30 02:11:50;;;;;;;7.97;3.13;;;7.50;86.70;;;;;;4815213;29;20058;-85
2021/05/30 02:14:19;;;;;;;7.25;2.97;;;7.50;86.70;;;;;;4831221;29;20058;-85
2021/05/30 02:16:49;;;;;;;8.10;2.75;;;7.50;86.70;;;;;;4833194;29;20058;-85
2021/05/30 02:19:16;;;;;;;7.00;3.00;;;7.50;86.90;;;;;;4836316;29;20126;-85
2021/05/30 02:21:45;;;;;;;6.35;3.10;;;7.50;87.00;;;;;;4833684;29;20046;-85
2021/05/30 02:24:12;;;;;;;8.48;3.60;;;7.40;87.10;;;;;;4825037;29;20073;-85
2021/05/30 02:26:39;;;;;;;7.28;3.13;;;7.40;87.40;;;;;;4833518;29;20349;-86
2021/05/30 02:29:06;;;;;;;8.60;3.28;;;7.40;87.60;;;;;;4816499;29;20054;-84
2021/05/30 02:31:34;;;;;;;7.30;3.20;;;7.40;87.70;;;;;;4833152;29;20349;-86
2021/05/30 02:34:02;;;;;;;8.23;3.30;;;7.40;87.70;;;;;;4831936;29;20130;-86
2021/05/30 02:36:30;;;;;;;6.88;3.20;;;7.40;87.60;;;;;;4818151;29;20054;-86
2021/05/30 02:38:57;;;;;;;9.73;3.63;;;7.30;87.80;;;;;;4835814;29;20065;-85
2021/05/30 02:41:24;;;;;;;6.18;2.67;;;7.30;87.80;;;;;;4823185;29;20213;-86
2021/05/30 02:43:51;;;;;;;7.32;3.08;;;7.40;87.80;;;;;;4839276;29;20058;-86
2021/05/30 02:46:18;;;;;;;8.43;3.20;;;7.40;87.90;;;;;;4837201;29;20066;-87
2021/05/30 02:48:45;;;;;;;7.32;3.45;;;7.30;88.00;;;;;;4833856;29;20211;-85
2021/05/30 02:51:13;;;;;;;7.38;3.50;;;7.40;87.90;;;;;;4828699;29;20050;-84
2021/05/30 02:53:41;;;;;;;9.70;4.03;;;7.40;87.90;;;;;;4835737;29;20042;-85
2021/05/30 02:56:08;;;;;;;8.60;3.95;;;7.40;87.80;;;;;;4814865;29;20058;-85
2021/05/30 02:58:36;;;;;;;9.85;3.88;;;7.40;87.70;;;;;;4830298;29;20061;-86
2021/05/30 03:01:04;;;;;;;7.68;3.03;;;7.30;87.60;;;;;;4829053;29;20050;-86
2021/05/30 03:03:38;;;;;;;10.13;3.13;;;7.30;87.60;;;;;;4817538;29;20074;-86
2021/05/30 03:06:10;;;;;;;7.22;3.22;;;7.20;87.90;;;;;;4831212;29;20265;-84
2021/05/30 03:08:40;;;;;;;10.32;4.95;;;7.10;88.10;;;;;;4828273;29;20087;-84
2021/05/30 03:11:08;;;;;;;6.57;3.03;;;7.00;87.90;;;;;;4828583;29;20065;-84
2021/05/30 03:13:36;;;;;;;9.65;3.22;;;6.90;87.90;;;;;;4815368;29;20315;-84
2021/05/30 03:16:04;;;;;;;6.18;2.65;;;6.90;88.20;;;;;;4810583;29;20058;-84
2021/05/30 03:18:31;;;;;;;8.32;2.90;;;6.90;88.50;;;;;;4810461;29;20050;-85
2021/05/30 03:20:58;;;;;;;8.27;3.30;;;6.80;88.30;;;;;;4824344;29;20332;-87
2021/05/30 03:23:26;;;;;;;8.45;3.25;;;6.80;88.50;;;;;;4823194;29;20046;-86
2021/05/30 03:25:54;;;;;;;7.28;3.10;;;6.80;88.60;;;;;;4831036;29;20054;-86
2021/05/30 03:28:21;;;;;;;8.93;3.22;;;6.80;88.70;;;;;;4832574;29;20110;-86
2021/05/30 03:30:48;;;;;;;7.85;3.30;;;6.80;88.70;;;;;;4829295;29;20083;-85
2021/05/30 03:33:15;;;;;;;8.98;3.90;;;6.70;88.80;;;;;;4820767;29;20123;-85
2021/05/30 03:35:44;;;;;;;8.43;3.67;;;6.70;88.80;;;;;;4829542;29;20087;-86
2021/05/30 03:38:18;;;;;;;8.30;3.33;;;6.70;88.80;;;;;;4828382;29;20066;-85
2021/05/30 03:41:01;;;;;;;8.63;3.40;;;6.70;88.60;;;;;;4828464;29;20110;-85
2021/05/30 03:43:29;;;;;;;8.23;3.72;;;6.70;88.60;;;;;;4823271;29;20101;-85
2021/05/30 03:45:57;;;;;;;8.63;3.80;;;6.70;88.50;;;;;;4821848;29;20050;-85
2021/05/30 03:48:24;;;;;;;7.45;3.30;;;6.70;88.60;;;;;;4815434;29;20238;-82
2021/05/30 03:50:51;;;;;;;7.63;3.15;;;6.80;88.60;;;;;;4831181;29;20050;-84
2021/05/30 03:53:19;;;;;;;8.63;3.08;;;6.80;88.30;;;;;;4814723;29;20072;-86
2021/05/30 03:55:50;;;;;;;8.18;3.25;;;6.90;87.90;;;;;;4817653;29;20046;-86
2021/05/30 03:58:19;;;;;;;7.38;2.92;;;6.80;87.90;;;;;;4809483;29;20381;-84
2021/05/30 04:00:47;;;;;;;8.75;3.45;;;6.90;87.70;;;;;;4825261;29;20062;-86
2021/05/30 04:03:14;;;;;;;8.23;3.72;;;6.90;87.50;;;;;;4831328;29;20057;-84
2021/05/30 04:05:41;;;;;;;6.07;2.70;;;7.00;87.50;;;;;;4830734;29;20054;-86
2021/05/30 04:08:08;;;;;;;9.23;3.58;;;7.00;87.30;;;;;;4806418;29;20060;-84
2021/05/30 04:10:36;;;;;;;8.88;4.20;;;7.00;87.50;;;;;;4815547;29;20058;-84
2021/05/30 04:13:06;;;;;;;10.80;4.60;;;7.00;87.40;;;;;;4814716;29;20052;-84
2021/05/30 04:15:37;;;;;;;8.40;3.88;;;7.00;87.40;;;;;;4806741;29;20068;-85
2021/05/30 04:18:04;;;;;;;;;;;6.90;87.50;;;;;;4831803;29;20087;-86
2021/05/30 04:20:31;;;;;;;7.07;3.58;;;6.90;87.70;;;;;;4823345;29;20003;-85
2021/05/30 04:22:58;;;;;;;9.00;4.07;;;6.90;87.70;;;;;;4815358;29;20061;-85
2021/05/30 04:25:26;;;;;;;10.48;3.45;;;7.00;87.70;;;;;;4807433;29;20057;-86
2021/05/30 04:27:53;;;;;;;8.43;3.80;;;7.00;87.70;;;;;;4829452;29;20133;-86
2021/05/30 04:30:21;;;;;;;8.40;3.40;;;7.00;87.70;;;;;;4831856;29;20062;-85
2021/05/30 04:32:48;;;;;;;8.75;3.60;;;7.00;87.50;;;;;;4821159;29;20121;-86
2021/05/30 04:35:16;;;;;;;9.35;3.45;;;7.00;87.60;;;;;;4816879;29;20067;-84
2021/05/30 04:37:47;;;;;;;8.73;3.30;;;7.00;87.50;;;;;;4830567;29;20054;-86
2021/05/30 04:40:14;;;;;;;7.85;3.53;;;7.10;87.60;;;;;;4811706;29;20070;-85
2021/05/30 04:42:41;;;;;;;9.02;4.22;;;7.20;87.60;;;;;;4830832;29;20048;-86
2021/05/30 04:45:09;;;;;;;12.45;4.63;;;7.20;87.50;;;;;;4831008;29;20249;-85
2021/05/30 04:47:36;;;;;;;8.45;4.28;;;7.30;87.40;;;;;;4829536;29;20070;-86
2021/05/30 04:50:13;;;;;;;8.30;3.78;;;7.40;87.20;;;;;;4815188;29;20125;-85
2021/05/30 04:52:41;;;;;;;19.98;4.15;;;7.40;87.00;;;;;;4831751;29;20042;-87
2021/05/30 04:55:11;;;;;;;8.25;3.63;;;7.40;86.90;;;;;;4834103;29;20062;-84
2021/05/30 04:57:39;;;;;;;7.22;3.00;;;7.40;86.60;;;;;;4815875;29;20129;-84
2021/05/30 05:00:11;;;;;;;9.15;3.72;;;7.40;86.50;;;;;;4828009;29;20118;-83
2021/05/30 05:02:39;;;;;;;9.32;3.95;;;7.50;86.50;;;;;;4820188;29;20054;-83
2021/05/30 05:05:10;;;;;;;9.85;3.65;;;7.60;86.50;;;;;;4815135;29;20054;-85
2021/05/30 05:07:37;;;;;;;9.82;3.80;;;7.70;86.40;;;;;;4817732;29;20052;-85
2021/05/30 05:10:13;;;;;;;8.52;3.72;;;7.70;86.40;;;;;;4817481;29;20060;-85
2021/05/30 05:12:41;;;;;;;8.20;3.85;;;7.80;86.20;;;;;;4811763;29;20148;-83
2021/05/30 05:15:09;;;;;;;7.90;4.07;;;7.90;86.20;;;;;;4807508;29;20050;-83
2021/05/30 05:17:36;;;;;;;8.43;3.78;;;8.00;86.20;;;;;;4830029;29;20049;-86
2021/05/30 05:20:07;;;;;;;12.23;4.13;;;8.20;86.20;;;;;;4815748;29;20054;-85
2021/05/30 05:22:34;;;;;;;11.57;4.72;;;8.40;85.70;;;;;;4813079;29;20061;-87
2021/05/30 05:25:04;;;;;;;8.30;3.83;;;8.50;85.50;;;;;;4832747;29;20062;-85
2021/05/30 05:27:32;;;;;;;12.18;4.90;;;8.60;85.10;;;;;;4821672;29;20058;-85
2021/05/30 05:29:59;;;;;;;14.68;6.50;;;8.70;85.00;;;;;;4837027;29;20187;-86
2021/05/30 05:32:26;;;;;;;12.20;3.90;;;8.80;84.90;;;;;;4811613;29;20130;-85
2021/05/30 05:34:52;;;;;;;9.23;4.40;;;9.00;84.60;;;;;;4835056;29;20057;-87
2021/05/30 05:37:19;;;;;;;9.52;4.65;;;9.10;84.10;;;;;;4819749;29;20081;-86
2021/05/30 05:39:49;;;;;;;8.20;4.07;;;9.20;83.90;;;;;;4836012;29;20114;-86
2021/05/30 05:42:16;;;;;;;12.18;4.68;;;9.30;83.60;;;;;;4835751;29;20075;-85
2021/05/30 05:44:46;;;;;;;10.63;5.50;;;9.40;83.20;;;;;;4806607;29;20060;-86
2021/05/30 05:47:13;;;;;;;12.23;4.95;;;9.50;82.90;;;;;;4817379;29;20058;-84
2021/05/30 05:49:40;;;;;;;10.77;5.03;;;9.60;82.50;;;;;;4830725;29;20046;-85
2021/05/30 05:52:10;;;;;;;9.23;4.10;;;9.70;82.20;;;;;;4831559;29;20065;-85
2021/05/30 05:54:37;;;;;;;11.98;5.47;;;9.90;81.70;;;;;;4832193;29;20413;-85
2021/05/30 05:57:06;;;;;;;11.10;4.65;;;10.00;81.20;;;;;;4814848;29;20360;-86
2021/05/30 05:59:32;;;;;;;9.63;3.63;;;10.00;81.30;;;;;;4833928;29;20089;-85
2021/05/30 06:02:00;;;;;;;9.20;4.07;;;10.20;81.20;;;;;;4795833;29;20155;-86
2021/05/30 06:04:29;;;;;;;8.60;3.97;;;10.30;81.00;;;;;;4808572;29;20066;-84
2021/05/30 06:06:56;;;;;;;10.20;4.05;;;10.40;80.50;;;;;;4831485;29;20087;-86
2021/05/30 06:09:23;;;;;;;12.60;4.18;;;10.60;80.10;;;;;;4813974;29;20050;-86
2021/05/30 06:11:50;;;;;;;8.93;4.07;;;10.70;79.60;;;;;;4830998;29;20093;-86
2021/05/30 06:14:17;;;;;;;10.88;4.22;;;10.70;79.70;;;;;;4813886;29;20042;-85
2021/05/30 06:16:44;;;;;;;10.90;4.47;;;10.80;79.10;;;;;;4830059;29;20042;-84
2021/05/30 06:19:13;;;;;;;15.55;5.18;;;10.90;79.10;;;;;;4829267;29;20066;-85
2021/05/30 06:21:42;;;;;;;10.70;4.43;;;11.00;78.50;;;;;;4797742;29;20050;-86
2021/05/30 06:24:16;;;;;;;8.40;4.13;;;11.10;78.10;;;;;;4840295;29;20049;-86
2021/05/30 06:26:44;;;;;;;10.80;5.07;;;11.10;78.10;;;;;;4809432;29;20055;-86
2021/05/30 06:29:11;;;;;;;7.07;3.45;;;11.20;78.00;;;;;;4816460;29;20046;-85
2021/05/30 06:31:38;;;;;;;9.35;4.82;;;11.30;78.20;;;;;;4831475;29;20054;-86
2021/05/30 06:34:06;;;;;;;9.65;4.53;;;11.30;78.00;;;;;;4797450;29;20190;-86
2021/05/30 06:36:34;;;;;;;11.27;4.63;;;11.50;77.70;;;;;;4832055;29;20066;-86
2021/05/30 06:39:02;;;;;;;9.55;4.10;;;11.70;77.20;;;;;;4818742;29;20126;-86
2021/05/30 06:41:29;;;;;;;9.93;4.10;;;11.70;76.50;;;;;;4815425;29;20038;-87
2021/05/30 06:43:59;;;;;;;8.80;4.13;;;11.80;76.30;;;;;;4821338;29;20416;-85
2021/05/30 06:46:27;;;;;;;9.18;4.10;;;12.00;76.20;;;;;;4820482;29;20156;-84
2021/05/30 06:48:54;;;;;;;12.13;4.43;;;12.00;75.80;;;;;;4810982;29;20115;-86
2021/05/30 06:51:22;;;;;;;10.30;4.30;;;12.10;75.90;;;;;;4815971;29;20057;-86
2021/05/30 06:53:51;;;;;;;8.20;4.03;;;12.20;75.10;;;;;;4830395;29;20309;-85
2021/05/30 06:56:18;;;;;;;9.23;3.88;;;12.30;75.70;;;;;;4832763;29;20070;-84
2021/05/30 06:58:45;;;;;;;8.43;3.80;;;12.40;75.10;;;;;;4830975;29;20054;-84
2021/05/30 07:01:12;;;;;;;9.93;3.95;;;12.50;74.40;;;;;;4827068;29;20069;-84
2021/05/30 07:03:39;;;;;;;8.45;4.22;;;12.70;74.20;;;;;;4828932;29;20070;-85
2021/05/30 07:06:09;;;;;;;8.98;4.22;;;12.70;74.20;;;;;;4810803;29;20058;-84
2021/05/30 07:08:36;;;;;;;8.93;3.83;;;13.00;72.90;;;;;;4828648;29;20058;-85
2021/05/30 07:11:04;;;;;;;7.85;3.45;;;13.10;72.60;;;;;;4828846;29;20086;-85
2021/05/30 07:13:31;;;;;;;7.47;3.47;;;13.20;72.00;;;;;;4827983;29;20046;-84
2021/05/30 07:15:58;;;;;;;9.27;4.03;;;13.30;71.50;;;;;;4826650;29;20066;-86
2021/05/30 07:18:27;;;;;;;9.35;3.78;;;13.40;70.80;;;;;;4816086;29;20488;-84
2021/05/30 07:20:54;;;;;;;8.38;3.40;;;13.50;70.90;;;;;;4817002;29;20061;-86
2021/05/30 07:23:22;;;;;;;9.25;4.05;;;13.60;70.20;;;;;;4794617;29;20054;-86
2021/05/30 07:25:50;;;;;;;9.65;4.43;;;13.60;70.80;;;;;;4817472;29;20337;-85
2021/05/30 07:28:19;;;;;;;10.57;4.03;;;13.80;69.10;;;;;;4808131;29;20241;-87
2021/05/30 07:30:46;;;;;;;9.10;3.53;;;13.90;69.30;;;;;;4830949;29;20045;-84
2021/05/30 07:33:13;;;;;;;9.18;3.50;;;14.00;68.60;;;;;;4830093;29;20050;-84
2021/05/30 07:35:40;;;;;;;9.30;4.03;;;14.10;67.90;;;;;;4831591;29;20087;-85
2021/05/30 07:38:09;;;;;;;8.27;3.67;;;14.20;67.70;;;;;;4821690;29;20058;-85
2021/05/30 07:40:37;;;;;;;9.90;3.47;;;14.30;67.80;;;;;;4825214;29;20097;-86
2021/05/30 07:43:05;;;;;;;8.35;3.92;;;14.40;66.10;;;;;;4826046;29;20078;-87
2021/05/30 07:45:36;;;;;;;7.80;3.45;;;14.50;65.90;;;;;;4823848;29;20133;-85
2021/05/30 07:48:04;;;;;;;8.05;3.85;;;14.60;65.70;;;;;;4825005;29;20061;-85
2021/05/30 07:50:35;;;;;;;;;;;14.60;64.80;;;;;;4832828;29;20246;-85
2021/05/30 07:53:03;;;;;;;7.82;2.70;;;14.70;65.00;;;;;;4831386;29;19921;-84
2021/05/30 07:55:30;;;;;;;7.80;3.30;;;14.90;64.00;;;;;;4808595;29;20066;-85
2021/05/30 07:57:57;;;;;;;5.82;2.88;;;15.00;63.80;;;;;;4830300;29;20058;-82
2021/05/30 08:00:25;;;;;;;7.85;3.25;;;15.20;63.40;;;;;;4819459;29;20050;-89
